Terminal Aerodrome Forecast
Issued by NWS Omaha/Valley, NE

Home | Current Version | Previous Version | Text Only | Print | Product List | Glossary On
Versions: 1 2 3 4 5 6 7 8 9 10 11 12 13 14 15 16 17 18 19 20 21 22
000
FTUS43 KOAX 242327
TAFOFK
TAF
KOFK 242327Z 2500/2524 14007KT P6SM SCT070
      TEMPO 2505/2509 4SM -TSRA OVC030CB
     FM250900 15010KT P6SM SCT040 OVC070 PROB30 2509/2512 4SM -TSRA
      OVC020CB
     FM251400 12012KT P6SM BKN040=

USA.gov is the U.S. government's official web portal to all federal, state and local government web resources and services.